Time;durP1;ratioP1;P1;durP2;ratioP2;P2;SDS_P1;SDS_P2;PMS_P1;PMS_P2;Temp;Humidity;BMP_temperature;BMP_pressure;BME280_temperature;BME280_humidity;BME280_pressure;Samples;Min_cycle;Max_cycle;Signal;HPM_P1;HPM_P2
2022/04/13 00:02:00;;;;;;;4.00;2.63;;;12.00;99.90;;;12.86;100.00;97791.63;4979586;28;21052;-74
2022/04/13 00:04:29;;;;;;;3.00;2.30;;;12.00;99.90;;;12.81;100.00;97791.44;4979795;28;20489;-74
2022/04/13 00:07:00;;;;;;;6.10;2.70;;;12.00;99.90;;;12.78;100.00;97789.22;4981549;28;20495;-74
2022/04/13 00:09:29;;;;;;;7.20;2.80;;;12.00;99.90;;;12.76;100.00;97778.16;4980280;28;20581;-75
2022/04/13 00:11:59;;;;;;;8.10;2.70;;;12.00;99.90;;;12.71;100.00;97791.88;4980950;28;20463;-74
2022/04/13 00:14:29;;;;;;;6.30;2.97;;;11.80;99.90;;;12.66;100.00;97780.41;4979959;28;20463;-74
2022/04/13 00:17:01;;;;;;;4.60;2.40;;;11.70;99.90;;;12.63;100.00;97785.03;4979135;28;20472;-75
2022/04/13 00:19:32;;;;;;;8.83;2.63;;;11.80;99.90;;;12.61;100.00;97784.44;4980635;28;20468;-74
2022/04/13 00:22:02;;;;;;;6.83;2.20;;;11.80;99.90;;;12.61;100.00;97791.50;4980962;28;20495;-74
2022/04/13 00:24:32;;;;;;;20.67;2.17;;;11.70;99.90;;;12.60;100.00;97790.69;4981814;28;21080;-75
2022/04/13 00:27:02;;;;;;;4.57;2.40;;;11.70;99.90;;;12.59;100.00;97794.34;4980432;28;20995;-74
2022/04/13 00:29:31;;;;;;;7.40;2.97;;;11.60;99.90;;;12.56;100.00;97794.75;4980833;28;20558;-74
2022/04/13 00:32:03;;;;;;;5.67;2.60;;;11.60;99.90;;;12.55;100.00;97792.34;4981604;28;20827;-74
2022/04/13 00:34:33;;;;;;;5.07;2.43;;;11.70;99.90;;;12.53;100.00;97789.09;4982381;28;20518;-75
2022/04/13 00:37:02;;;;;;;4.90;2.90;;;11.60;99.90;;;12.51;100.00;97786.69;4980633;28;20555;-74
2022/04/13 00:39:31;;;;;;;14.60;2.83;;;11.60;99.90;;;12.47;100.00;97790.75;4981624;28;20468;-75
2022/04/13 00:42:07;;;;;;;4.80;2.50;;;11.60;99.90;;;12.44;100.00;97788.53;4980759;28;20916;-74
2022/04/13 00:44:37;;;;;;;3.30;2.20;;;11.70;99.90;;;12.42;100.00;97787.94;4980398;28;20463;-74
2022/04/13 00:47:09;;;;;;;3.70;2.30;;;11.60;99.90;;;12.42;100.00;97784.50;4980825;28;20476;-74
2022/04/13 00:49:40;;;;;;;5.03;2.23;;;11.50;99.90;;;12.39;100.00;97795.41;4978593;28;20478;-75
2022/04/13 00:52:10;;;;;;;7.20;2.67;;;11.50;99.90;;;12.36;100.00;97786.13;4981898;28;20472;-74
2022/04/13 00:54:44;;;;;;;3.80;2.33;;;11.50;99.90;;;12.34;100.00;97784.72;4979693;28;20487;-74
2022/04/13 00:57:19;;;;;;;6.37;2.50;;;11.40;99.90;;;12.32;100.00;97789.38;4981399;28;20460;-74
2022/04/13 00:59:53;;;;;;;3.90;2.10;;;11.40;99.90;;;12.26;100.00;97795.41;4982026;28;20471;-74
2022/04/13 01:02:26;;;;;;;4.80;2.33;;;11.30;99.90;;;12.22;100.00;97795.00;4980455;28;20478;-74
2022/04/13 01:05:03;;;;;;;7.20;2.30;;;11.40;99.90;;;12.14;100.00;97795.22;4980356;28;20830;-75
2022/04/13 01:07:35;;;;;;;4.97;2.53;;;11.30;99.90;;;12.12;100.00;97792.00;4978566;28;20476;-74
2022/04/13 01:10:06;;;;;;;4.93;2.30;;;11.30;99.90;;;12.08;100.00;97788.97;4981859;28;20467;-75
2022/04/13 01:12:36;;;;;;;9.03;2.63;;;11.20;99.90;;;12.05;100.00;97786.75;4978577;28;20488;-75
2022/04/13 01:15:08;;;;;;;6.40;2.70;;;11.10;99.90;;;12.03;100.00;97788.78;4982053;28;20987;-74
2022/04/13 01:17:40;;;;;;;5.40;2.03;;;11.10;99.90;;;11.99;100.00;97792.81;4980340;28;20596;-75
2022/04/13 01:20:13;;;;;;;6.77;2.20;;;11.20;99.90;;;11.94;100.00;97797.06;4981502;28;21025;-74
2022/04/13 01:22:47;;;;;;;9.43;3.00;;;11.20;99.90;;;11.84;100.00;97794.81;4978632;28;20523;-74
2022/04/13 01:25:17;;;;;;;5.10;1.90;;;11.00;99.90;;;11.81;100.00;97799.66;4980232;28;20981;-75
2022/04/13 01:27:47;;;;;;;6.83;2.90;;;11.00;99.90;;;11.76;100.00;97813.38;4943261;28;1158905;-75
2022/04/13 01:30:16;;;;;;;5.07;2.10;;;10.80;99.90;;;11.71;100.00;97807.09;4979912;28;20797;-75
2022/04/13 01:32:47;;;;;;;9.80;2.13;;;10.90;99.90;;;11.68;100.00;97820.56;4980793;28;21034;-73
2022/04/13 01:35:17;;;;;;;7.10;2.10;;;10.80;99.90;;;11.65;100.00;97813.13;4983057;28;20535;-74
2022/04/13 01:59:28;;;;;;;3.23;2.17;;;10.50;99.90;;;11.37;100.00;97834.19;4981380;28;20432;-74
2022/04/13 02:02:04;;;;;;;6.63;2.07;;;10.50;99.90;;;11.30;100.00;97834.19;4980131;28;20452;-74
2022/04/13 02:04:34;;;;;;;3.13;1.83;;;10.30;99.90;;;11.26;100.00;97838.19;4979229;28;20480;-74
2022/04/13 02:07:04;;;;;;;4.07;1.80;;;10.30;99.90;;;11.24;100.00;97836.78;4979040;28;20461;-74
2022/04/13 02:09:35;;;;;;;3.60;2.10;;;10.30;99.90;;;11.18;100.00;97835.72;4976979;28;20472;-74
2022/04/13 02:12:06;;;;;;;4.77;2.13;;;10.30;99.90;;;11.15;100.00;97838.75;4977479;28;20473;-74
2022/04/13 02:14:38;;;;;;;7.33;2.43;;;10.30;99.90;;;11.14;100.00;97847.63;4979856;28;20459;-74
2022/04/13 02:17:16;;;;;;;2.93;2.07;;;10.20;99.90;;;11.13;100.00;97846.00;4977917;28;20463;-74
2022/04/13 02:19:45;;;;;;;4.03;2.00;;;10.20;99.90;;;11.05;100.00;97846.16;4980071;28;20460;-74
2022/04/13 02:22:14;;;;;;;4.27;2.30;;;10.20;99.90;;;11.03;100.00;97833.28;4979931;28;20987;-74
2022/04/13 02:25:05;;;;;;;4.20;1.60;;;10.10;99.90;;;11.03;100.00;97832.47;4977903;28;20944;-74
2022/04/13 02:27:34;;;;;;;7.40;2.00;;;10.10;99.90;;;10.98;100.00;97843.50;4979849;28;20486;-74
2022/04/13 02:30:04;;;;;;;6.03;2.00;;;10.10;99.90;;;10.96;100.00;97842.09;4980644;28;20494;-74
2022/04/13 02:32:38;;;;;;;2.77;1.93;;;9.90;99.90;;;10.96;100.00;97845.53;4981162;28;21001;-74
2022/04/13 02:35:10;;;;;;;6.90;2.30;;;10.00;99.90;;;10.96;100.00;97840.28;4981189;28;20499;-74
2022/04/13 02:37:39;;;;;;;6.93;2.03;;;10.00;99.90;;;10.96;100.00;97839.47;4980210;28;20499;-74
2022/04/13 02:40:14;;;;;;;3.20;2.07;;;10.10;99.90;;;10.95;100.00;97841.28;4984779;28;20440;-74
2022/04/13 02:42:43;;;;;;;6.03;2.10;;;10.00;99.90;;;10.91;100.00;97837.44;4980429;28;20501;-74
2022/04/13 02:45:13;;;;;;;3.77;2.00;;;9.90;99.90;;;10.87;100.00;97838.00;4980725;28;20994;-74
2022/04/13 02:47:43;;;;;;;5.53;2.20;;;9.80;99.90;;;10.79;100.00;97844.25;4978546;28;20476;-75
2022/04/13 02:50:16;;;;;;;2.93;1.77;;;9.70;99.90;;;10.78;100.00;97839.19;4980186;28;20463;-75
2022/04/13 02:52:46;;;;;;;7.43;2.13;;;9.80;99.90;;;10.78;100.00;97847.03;4979160;28;20977;-74
2022/04/13 02:55:17;;;;;;;3.10;2.10;;;9.80;99.90;;;10.75;100.00;97842.19;4979144;28;21003;-74
2022/04/13 02:57:47;;;;;;;4.90;2.00;;;9.80;99.90;;;10.73;100.00;97841.56;4980941;28;20447;-74
2022/04/13 03:00:19;;;;;;;12.07;2.40;;;9.70;99.90;;;10.68;100.00;97843.97;4981939;28;20459;-74
2022/04/13 03:02:50;;;;;;;9.20;2.30;;;9.70;99.90;;;10.66;100.00;97845.94;4979252;28;20577;-74
2022/04/13 03:05:21;;;;;;;10.23;2.17;;;9.60;99.90;;;10.59;100.00;97848.53;4979442;28;20457;-74
2022/04/13 03:07:51;;;;;;;2.30;1.87;;;9.60;99.90;;;10.56;100.00;97847.09;4979899;28;20469;-74
2022/04/13 03:10:21;;;;;;;3.83;1.90;;;9.60;99.90;;;10.55;100.00;97849.94;4980103;28;20540;-74
2022/04/13 03:12:51;;;;;;;4.63;1.70;;;9.60;99.90;;;10.54;100.00;97846.50;4979165;28;20496;-84
2022/04/13 03:15:23;;;;;;;5.67;2.10;;;9.60;99.90;;;10.51;100.00;97846.06;4978901;28;20459;-74
2022/04/13 03:17:54;;;;;;;4.77;1.67;;;9.60;99.90;;;10.48;100.00;97843.84;4976158;28;21208;-75
2022/04/13 03:20:23;;;;;;;2.10;1.90;;;9.50;99.90;;;10.45;100.00;97845.00;4977439;28;21014;-74
2022/04/13 03:22:54;;;;;;;3.70;2.03;;;9.50;99.90;;;10.44;100.00;97855.69;4976947;28;20491;-74
2022/04/13 03:25:25;;;;;;;3.90;1.97;;;9.40;99.90;;;10.40;100.00;97855.25;4977214;28;20469;-74
2022/04/13 03:27:55;;;;;;;2.13;1.70;;;9.50;99.90;;;10.33;100.00;97857.00;4979480;28;20480;-81
2022/04/13 03:30:26;;;;;;;7.90;1.80;;;9.40;99.90;;;10.29;100.00;97860.19;4978268;28;20519;-75
2022/04/13 03:32:57;;;;;;;5.80;2.30;;;9.30;99.90;;;10.26;100.00;97850.91;4978293;28;20487;-74
2022/04/13 03:35:29;;;;;;;4.43;2.00;;;9.40;99.90;;;10.20;100.00;97851.69;4979068;28;20456;-74
2022/04/13 03:37:58;;;;;;;6.27;1.80;;;9.20;99.90;;;10.17;100.00;97852.03;4980953;28;20497;-74
2022/04/13 03:40:27;;;;;;;5.90;2.13;;;9.30;99.90;;;10.13;100.00;97851.56;4983162;28;20452;-74
2022/04/13 03:42:57;;;;;;;4.47;2.10;;;9.20;99.90;;;10.12;100.00;97843.94;4979223;28;20460;-74
2022/04/13 03:45:29;;;;;;;5.77;1.97;;;9.30;99.90;;;10.07;100.00;97844.50;4980747;28;20428;-74
2022/04/13 03:48:00;;;;;;;4.03;1.80;;;9.20;99.90;;;10.05;100.00;97837.84;4978165;28;20816;-74
2022/04/13 03:50:30;;;;;;;3.70;1.90;;;9.10;99.90;;;10.02;100.00;97843.47;4978279;28;20456;-83
2022/04/13 03:53:00;;;;;;;2.50;1.90;;;9.10;99.90;;;10.00;100.00;97850.66;4975631;28;20479;-74
2022/04/13 03:55:31;;;;;;;4.53;1.80;;;9.10;99.90;;;9.99;100.00;97849.88;4978084;28;20468;-74
2022/04/13 03:58:02;;;;;;;3.00;1.77;;;9.00;99.90;;;9.98;100.00;97847.44;4979560;28;20447;-74
2022/04/13 04:00:32;;;;;;;3.83;1.90;;;9.00;99.90;;;9.97;100.00;97853.66;4980753;28;20464;-74
2022/04/13 04:03:02;;;;;;;4.57;2.13;;;9.00;99.90;;;9.95;100.00;97853.03;4979458;28;20526;-75
2022/04/13 04:05:33;;;;;;;5.43;1.67;;;9.00;99.90;;;9.92;100.00;97849.00;4979682;28;20865;-74
2022/04/13 04:08:02;;;;;;;3.47;2.07;;;9.10;99.90;;;9.86;100.00;97854.16;4978467;28;20453;-74
2022/04/13 04:10:32;;;;;;;7.23;1.90;;;9.00;99.90;;;9.84;100.00;97861.38;4982251;28;20464;-74
2022/04/13 04:13:03;;;;;;;3.50;1.77;;;9.00;99.90;;;9.81;100.00;97856.53;4978040;28;20452;-83
2022/04/13 04:15:33;;;;;;;5.03;2.23;;;8.90;99.90;;;9.77;100.00;97863.09;4979673;28;20452;-74
2022/04/13 04:18:07;;;;;;;3.60;1.60;;;8.90;99.90;;;9.76;100.00;97864.91;4980224;28;20448;-74
2022/04/13 04:20:36;;;;;;;2.70;1.50;;;8.90;99.90;;;9.74;100.00;97871.31;4982883;28;20456;-75
2022/04/13 04:23:06;;;;;;;4.20;1.47;;;8.80;99.90;;;9.69;100.00;97874.47;4982154;28;20464;-75
2022/04/13 04:25:36;;;;;;;6.70;2.13;;;8.80;99.90;;;9.61;100.00;97870.19;4983874;28;20454;-75
2022/04/13 04:28:10;;;;;;;3.78;2.05;;;8.80;99.90;;;9.65;100.00;97877.66;4984915;28;20438;-75
2022/04/13 04:30:39;;;;;;;7.80;2.47;;;8.70;99.90;;;9.65;100.00;97883.66;4983790;28;20205;-75
2022/04/13 04:33:14;;;;;;;8.70;2.00;;;8.70;99.90;;;9.64;100.00;97882.06;4984792;28;20472;-75
2022/04/13 04:35:47;;;;;;;18.43;2.23;;;8.70;99.90;;;9.64;100.00;97883.88;4985303;28;20529;-74
2022/04/13 04:38:17;;;;;;;5.97;1.93;;;8.70;99.90;;;9.56;100.00;97875.16;4984926;28;20449;-75
2022/04/13 04:40:47;;;;;;;4.83;1.93;;;8.50;99.90;;;9.54;100.00;97871.91;4983194;28;20451;-75
2022/04/13 04:43:16;;;;;;;12.97;1.97;;;8.50;99.90;;;9.49;100.00;97876.06;4984058;28;20445;-75
2022/04/13 04:45:46;;;;;;;4.10;2.00;;;8.50;99.90;;;9.51;100.00;97874.88;4985070;28;20500;-75
2022/04/13 04:48:18;;;;;;;5.40;1.80;;;8.60;99.90;;;9.48;100.00;97883.09;4983749;28;20456;-75
2022/04/13 04:50:48;;;;;;;10.30;2.00;;;8.50;99.90;;;9.47;100.00;97888.50;4980503;28;20459;-75
2022/04/13 04:53:18;;;;;;;2.00;1.60;;;8.40;99.90;;;9.44;100.00;97892.28;4981352;28;20513;-75
2022/04/13 04:55:48;;;;;;;4.70;1.83;;;8.50;99.90;;;9.34;100.00;97891.75;4983247;28;20449;-75
2022/04/13 04:58:17;;;;;;;2.00;1.80;;;8.50;99.90;;;9.34;100.00;97896.97;4984306;28;20455;-75
2022/04/13 05:00:48;;;;;;;3.00;1.70;;;8.50;99.90;;;9.36;100.00;97899.41;4984810;28;20459;-75
2022/04/13 05:03:20;;;;;;;8.30;2.33;;;8.50;99.90;;;9.35;100.00;97903.81;4983163;28;20496;-75
2022/04/13 05:05:51;;;;;;;2.60;1.63;;;8.50;99.90;;;9.34;100.00;97912.63;4984189;28;20496;-75
2022/04/13 05:08:20;;;;;;;5.17;1.90;;;8.40;99.90;;;9.34;100.00;97912.63;4983697;28;20440;-75
2022/04/13 05:10:51;;;;;;;4.13;2.33;;;8.40;99.90;;;9.37;100.00;97911.47;4985579;28;20468;-75
2022/04/13 05:13:21;;;;;;;4.10;1.97;;;8.40;99.90;;;9.39;100.00;97920.75;4982368;28;20842;-75
2022/04/13 05:15:53;;;;;;;10.93;2.23;;;8.40;99.90;;;9.42;100.00;97922.97;4982514;28;20479;-75
2022/04/13 05:18:25;;;;;;;3.10;2.17;;;8.40;99.90;;;9.43;100.00;97922.00;4981091;28;20448;-75
2022/04/13 05:20:56;;;;;;;3.07;2.07;;;8.30;99.90;;;9.44;100.00;97918.38;4980723;28;20815;-75
2022/04/13 05:23:25;;;;;;;10.23;2.10;;;8.40;99.90;;;9.43;100.00;97922.00;4981398;28;20477;-75
2022/04/13 05:25:57;;;;;;;7.23;2.50;;;8.50;99.90;;;9.41;100.00;97921.34;4982471;28;20503;-74
2022/04/13 05:28:31;;;;;;;5.57;2.10;;;8.40;99.90;;;9.41;100.00;97918.75;4981135;28;20452;-75
2022/04/13 05:31:01;;;;;;;7.17;1.87;;;8.40;99.90;;;9.44;100.00;97920.97;4981128;28;20472;-75
2022/04/13 05:33:33;;;;;;;8.70;2.20;;;8.40;99.90;;;9.44;100.00;97925.41;4981838;28;20455;-75
2022/04/13 05:36:04;;;;;;;5.90;1.90;;;8.40;99.90;;;9.42;100.00;97922.97;4981637;28;20455;-75
2022/04/13 05:38:34;;;;;;;3.93;1.97;;;8.30;99.90;;;9.42;100.00;97928.19;4982404;28;21271;-75
2022/04/13 05:41:06;;;;;;;4.40;1.87;;;8.30;99.90;;;9.44;100.00;97936.63;4982204;28;20934;-75
2022/04/13 05:43:36;;;;;;;3.80;2.20;;;8.40;99.90;;;9.47;100.00;97938.09;4981555;28;20811;-75
2022/04/13 05:46:06;;;;;;;6.20;2.20;;;8.40;99.90;;;9.51;100.00;97936.75;4983259;28;21033;-75
2022/04/13 05:48:38;;;;;;;10.30;2.47;;;8.50;99.90;;;9.56;100.00;97937.81;4984667;28;20449;-75
2022/04/13 05:51:09;;;;;;;3.07;2.00;;;8.60;99.90;;;9.61;100.00;97938.06;4982299;28;20452;-75
2022/04/13 05:53:39;;;;;;;8.63;2.50;;;8.70;99.90;;;9.68;100.00;97942.56;4980248;28;20465;-74
2022/04/13 05:56:08;;;;;;;4.27;2.90;;;8.70;99.90;;;9.71;100.00;97940.38;4979572;28;20480;-75
2022/04/13 05:58:38;;;;;;;5.10;2.37;;;8.60;99.90;;;9.73;100.00;97938.38;4978498;28;20453;-75
2022/04/13 06:01:08;;;;;;;2.43;2.10;;;8.80;99.90;;;9.78;100.00;97949.09;4979330;28;20474;-75
2022/04/13 06:03:40;;;;;;;10.13;2.50;;;8.90;99.90;;;9.81;100.00;97946.13;4983643;28;20986;-75
2022/04/13 06:06:12;;;;;;;3.37;1.70;;;8.90;99.90;;;9.84;100.00;97944.94;4983598;28;20523;-75
2022/04/13 06:08:42;;;;;;;4.37;2.00;;;8.90;99.90;;;9.85;100.00;97946.56;4982591;28;20455;-74
2022/04/13 06:11:11;;;;;;;6.73;2.10;;;9.00;99.90;;;9.88;100.00;97946.19;4982003;28;20463;-75
2022/04/13 06:13:41;;;;;;;4.47;2.37;;;9.10;99.90;;;9.90;100.00;97949.41;4982635;28;20473;-75
2022/04/13 06:16:13;;;;;;;6.60;2.17;;;9.10;99.90;;;9.93;100.00;97941.22;4983515;28;20451;-74
2022/04/13 06:18:45;;;;;;;4.80;2.43;;;9.20;99.90;;;9.97;100.00;97945.06;4981782;28;20444;-75
2022/04/13 06:21:15;;;;;;;4.80;1.70;;;9.10;99.90;;;10.04;100.00;97945.94;4981984;28;20455;-75
2022/04/13 06:23:47;;;;;;;4.23;2.37;;;9.10;99.90;;;10.09;100.00;97948.81;4982145;28;20444;-75
2022/04/13 06:26:17;;;;;;;3.20;1.87;;;9.10;99.90;;;10.15;100.00;97949.91;4983478;28;20507;-74
2022/04/13 06:28:46;;;;;;;6.33;2.60;;;9.20;99.90;;;10.21;100.00;97942.13;4983487;28;20477;-75
2022/04/13 06:31:17;;;;;;;15.10;2.57;;;9.30;99.90;;;10.27;100.00;97944.00;4984100;28;20455;-75
2022/04/13 06:33:48;;;;;;;6.43;2.37;;;9.40;99.90;;;10.33;100.00;97947.66;4982083;28;20452;-75
2022/04/13 06:36:18;;;;;;;4.83;2.07;;;9.40;99.90;;;10.38;100.00;97948.72;4982680;28;20470;-75
2022/04/13 06:38:47;;;;;;;7.53;2.27;;;9.50;99.90;;;10.47;100.00;97957.25;4983817;28;20469;-75
2022/04/13 06:41:17;;;;;;;4.33;2.53;;;9.70;99.90;;;10.52;100.00;97947.81;4982039;28;20477;-75
2022/04/13 06:43:47;;;;;;;5.70;2.80;;;9.70;99.90;;;10.58;100.00;97947.09;4981674;28;20971;-75
2022/04/13 06:46:17;;;;;;;5.20;2.40;;;9.90;99.90;;;10.65;100.00;97943.72;4981396;28;20491;-75
2022/04/13 06:48:47;;;;;;;22.67;2.43;;;9.90;99.90;;;10.70;100.00;97949.16;4979459;28;20884;-75
2022/04/13 06:51:42;;;;;;;7.57;2.77;;;9.90;99.90;;;10.79;100.00;97955.88;4980970;28;20449;-75
2022/04/13 06:54:17;;;;;;;9.37;1.90;;;9.90;99.90;;;10.87;100.00;97958.34;4980747;28;20448;-75
2022/04/13 06:56:46;;;;;;;8.03;3.50;;;10.00;99.90;;;10.95;100.00;97960.81;4979708;28;20507;-75
2022/04/13 06:59:15;;;;;;;7.60;2.20;;;10.10;99.90;;;11.02;100.00;97962.50;4978562;28;20449;-75
2022/04/13 07:01:45;;;;;;;6.13;2.13;;;10.20;99.90;;;11.08;100.00;97969.56;4974247;28;20465;-75
2022/04/13 07:04:19;;;;;;;5.00;2.53;;;10.30;99.90;;;11.16;100.00;97971.22;4975548;28;20491;-75
2022/04/13 07:06:50;;;;;;;7.40;2.50;;;10.40;99.90;;;11.23;100.00;97973.88;4974211;28;20596;-75
2022/04/13 07:09:20;;;;;;;9.47;2.37;;;10.40;99.90;;;11.28;100.00;97969.66;4974109;28;20955;-75
2022/04/13 07:11:51;;;;;;;6.17;3.30;;;10.60;99.90;;;11.34;100.00;97976.78;4974366;28;20970;-75
2022/04/13 07:14:21;;;;;;;9.80;2.53;;;10.60;99.90;;;11.41;100.00;97971.56;4973662;28;20463;-75
2022/04/13 07:16:49;;;;;;;11.50;3.00;;;10.70;99.90;;;11.46;100.00;97971.78;4974451;28;20457;-75
2022/04/13 07:19:21;;;;;;;4.90;2.20;;;10.70;99.90;;;11.53;100.00;97976.06;4974213;28;20512;-75
2022/04/13 07:21:50;;;;;;;9.00;2.40;;;10.80;99.90;;;11.58;100.00;97978.09;4974896;28;20441;-75
2022/04/13 07:24:27;;;;;;;7.17;2.43;;;10.90;99.90;;;11.62;100.00;97974.09;4975340;28;20449;-74
2022/04/13 07:26:57;;;;;;;4.90;2.40;;;11.00;99.90;;;11.66;100.00;97967.47;4974154;28;20587;-75
2022/04/13 07:29:26;;;;;;;6.47;2.23;;;11.00;99.90;;;11.74;100.00;97971.72;4974241;28;20443;-75
2022/04/13 07:31:58;;;;;;;5.10;2.40;;;11.10;99.90;;;11.78;100.00;97968.53;4977089;28;20456;-75
2022/04/13 07:34:29;;;;;;;3.90;2.10;;;11.20;99.90;;;11.85;100.00;97976.41;4982236;28;20452;-74
2022/04/13 07:36:59;;;;;;;6.00;2.10;;;11.20;99.90;;;11.88;100.00;97968.97;4983125;28;20467;-75
2022/04/13 07:39:30;;;;;;;15.13;2.27;;;11.30;99.90;;;11.94;100.00;97975.25;4982288;28;20491;-75
2022/04/13 07:42:00;;;;;;;11.43;2.27;;;11.20;99.90;;;12.00;100.00;97977.88;4983984;28;20445;-75
2022/04/13 07:44:30;;;;;;;3.40;2.10;;;11.30;99.90;;;12.06;100.00;97987.56;4981899;28;20956;-75
2022/04/13 07:47:22;;;;;;;6.70;2.30;;;11.30;99.90;;;12.14;100.00;97977.91;4982490;28;20538;-75
2022/04/13 07:49:52;;;;;;;6.90;2.47;;;11.40;99.90;;;12.20;100.00;97983.16;4981804;28;20448;-75
2022/04/13 07:52:22;;;;;;;3.30;2.10;;;11.60;99.90;;;12.25;100.00;97983.34;4982030;28;20445;-74
2022/04/13 07:54:53;;;;;;;6.30;2.10;;;11.70;99.90;;;12.33;100.00;97987.63;4985985;28;20444;-75
2022/04/13 07:57:24;;;;;;;6.03;2.87;;;11.70;99.90;;;12.39;100.00;97986.84;4986252;28;20460;-75
2022/04/13 07:59:55;;;;;;;13.13;2.07;;;11.70;99.90;;;12.45;100.00;97986.84;4986452;28;20459;-75
2022/04/13 08:02:25;;;;;;;6.23;2.40;;;11.80;99.90;;;12.52;100.00;97992.09;4985413;28;20515;-75
2022/04/13 08:04:57;;;;;;;4.83;2.50;;;11.90;99.90;;;12.58;100.00;97994.72;4986277;28;20452;-75
2022/04/13 08:07:32;;;;;;;4.73;2.17;;;12.10;99.90;;;12.65;100.00;97991.28;4985550;28;20855;-75
2022/04/13 08:10:02;;;;;;;9.70;2.30;;;12.10;99.90;;;12.71;100.00;97998.34;4984880;28;21010;-75
2022/04/13 08:12:33;;;;;;;4.10;2.13;;;12.10;99.90;;;12.79;100.00;98006.03;4986549;28;20444;-75
2022/04/13 08:15:05;;;;;;;6.00;1.67;;;12.10;99.90;;;12.83;100.00;98002.00;4985226;28;20494;-75
2022/04/13 08:17:38;;;;;;;9.17;2.37;;;12.20;99.90;;;12.90;100.00;98001.00;4984282;28;20445;-75
2022/04/13 08:20:13;;;;;;;4.03;1.97;;;12.30;99.90;;;12.98;100.00;97997.34;4985369;28;20475;-75
2022/04/13 08:22:44;;;;;;;5.53;2.20;;;12.40;99.90;;;13.04;100.00;97994.72;4984421;28;20450;-75
2022/04/13 08:25:13;;;;;;;7.17;2.07;;;12.40;99.90;;;13.12;100.00;97996.31;4985520;28;20444;-75
2022/04/13 08:27:45;;;;;;;7.60;2.10;;;12.50;99.90;;;13.18;100.00;97994.72;4984796;28;20473;-75
2022/04/13 08:30:15;;;;;;;4.33;2.10;;;12.60;99.90;;;13.25;100.00;98004.22;4983917;28;20448;-75
2022/04/13 08:32:44;;;;;;;5.40;2.37;;;12.70;99.90;;;13.32;100.00;98002.38;4980113;28;20470;-76
2022/04/13 08:35:16;;;;;;;6.40;2.30;;;12.70;99.90;;;13.39;100.00;98005.81;4979211;28;20915;-75
2022/04/13 08:37:45;;;;;;;8.63;1.90;;;12.90;99.90;;;13.49;100.00;98005.38;4979771;28;20498;-75
2022/04/13 08:40:17;;;;;;;4.23;2.07;;;12.90;99.90;;;13.57;100.00;98010.41;4979226;28;20529;-75
2022/04/13 08:42:53;;;;;;;6.47;2.40;;;13.00;99.90;;;13.66;100.00;98010.97;4981181;28;20444;-75
2022/04/13 08:45:25;;;;;;;9.67;2.90;;;13.10;99.90;;;13.73;100.00;98011.75;4980887;28;20559;-75
2022/04/13 08:47:59;;;;;;;4.53;1.70;;;13.20;99.90;;;13.81;100.00;98008.91;4981456;28;20471;-75
2022/04/13 08:50:31;;;;;;;6.93;2.20;;;13.30;99.90;;;13.92;99.57;98016.13;4981540;28;20542;-75
2022/04/13 08:53:04;;;;;;;6.73;2.00;;;13.50;99.90;;;14.05;97.84;98022.16;4982303;28;20441;-75
2022/04/13 08:55:36;;;;;;;4.57;2.10;;;13.60;99.90;;;14.19;96.83;98012.38;4981872;28;20515;-75
2022/04/13 08:58:23;;;;;;;4.80;2.13;;;13.70;99.90;;;14.28;96.35;98010.28;4979584;28;20968;-75
2022/04/13 09:01:00;;;;;;;15.13;2.00;;;13.80;99.90;;;14.39;95.89;98013.09;4982144;28;20476;-75
2022/04/13 09:03:43;;;;;;;6.87;1.80;;;13.90;99.90;;;14.49;94.93;98007.34;4981013;28;20947;-75
2022/04/13 09:06:15;;;;;;;2.90;1.63;;;14.00;99.90;;;14.57;94.46;98010.56;4982493;28;20480;-75
2022/04/13 09:08:51;;;;;;;6.40;2.00;;;14.10;99.90;;;14.67;93.49;98012.69;4982530;28;20448;-75
2022/04/13 09:11:22;;;;;;;6.40;1.80;;;14.20;99.90;;;14.74;92.04;98021.34;4981200;28;20459;-75
2022/04/13 09:13:52;;;;;;;5.57;2.10;;;14.30;99.90;;;14.83;91.51;98014.00;4980192;28;20461;-75
2022/04/13 09:16:23;;;;;;;4.47;1.90;;;14.40;99.90;;;14.93;91.44;98019.56;4980233;28;20464;-74
2022/04/13 09:18:53;;;;;;;8.00;2.17;;;14.50;99.90;;;15.03;89.66;98017.25;4983818;28;20523;-75
2022/04/13 09:21:28;;;;;;;3.23;1.93;;;14.60;99.70;;;15.12;88.36;98013.34;4984371;28;20452;-75
2022/04/13 09:23:58;;;;;;;5.80;1.83;;;14.70;99.60;;;15.23;87.43;98006.56;4984881;28;20483;-75
2022/04/13 09:26:31;;;;;;;6.27;1.77;;;14.80;99.80;;;15.32;83.90;98002.63;4983408;28;20475;-75
2022/04/13 09:29:01;;;;;;;5.93;1.90;;;14.90;98.40;;;15.41;83.12;98007.38;4982569;28;20466;-75
2022/04/13 09:31:32;;;;;;;11.10;1.90;;;15.00;98.30;;;15.54;82.74;98006.47;4982503;28;20463;-75
2022/04/13 09:34:02;;;;;;;14.00;1.80;;;15.10;98.10;;;15.63;81.73;98004.34;4982894;28;20444;-75
2022/04/13 09:36:35;;;;;;;9.03;2.03;;;15.20;97.90;;;15.74;81.48;98006.25;4984728;28;20444;-75
2022/04/13 09:39:06;;;;;;;4.70;1.97;;;15.30;97.90;;;15.85;79.96;98008.16;4982269;28;21095;-75
2022/04/13 09:41:38;;;;;;;10.83;1.93;;;15.40;97.60;;;15.91;76.81;98005.44;4982776;28;20526;-76
2022/04/13 09:44:14;;;;;;;6.53;1.93;;;15.50;96.80;;;16.00;76.27;98000.66;4983863;28;20440;-75
2022/04/13 09:46:44;;;;;;;3.60;1.90;;;15.60;96.70;;;16.09;75.75;98001.97;4983199;28;20480;-75
2022/04/13 09:49:17;;;;;;;7.57;1.70;;;15.60;96.60;;;16.21;74.65;98002.81;4983970;28;20454;-75
2022/04/13 09:51:51;;;;;;;6.87;1.97;;;15.80;96.10;;;16.32;72.97;98006.50;4982707;28;20456;-74
2022/04/13 09:54:25;;;;;;;7.53;1.83;;;15.90;95.90;;;16.47;69.10;97999.00;4982951;28;20443;-75
2022/04/13 09:56:55;;;;;;;5.60;1.90;;;16.00;94.80;;;16.58;69.66;98004.34;4984034;28;20474;-75
2022/04/13 09:59:29;;;;;;;13.33;1.80;;;16.10;95.10;;;16.68;69.14;97995.06;4984046;28;20477;-75
2022/04/13 10:02:01;;;;;;;6.07;2.13;;;16.20;95.40;;;16.79;67.95;97997.72;4981444;28;20516;-75
2022/04/13 10:04:33;;;;;;;3.60;1.90;;;16.40;94.70;;;16.94;67.90;97992.78;4982945;28;20439;-75
2022/04/13 10:07:18;;;;;;;3.70;1.87;;;16.50;94.60;;;17.05;67.27;97994.63;4981223;28;21018;-75
2022/04/13 10:09:49;;;;;;;6.40;1.57;;;16.60;94.60;;;17.17;66.49;97997.28;4983197;28;20499;-76
2022/04/13 10:12:18;;;;;;;4.37;1.40;;;16.70;93.80;;;17.32;64.28;97987.03;4983493;28;20526;-75
2022/04/13 10:14:48;;;;;;;4.80;1.40;;;16.90;93.80;;;17.47;64.43;97986.56;4982750;28;20457;-75
2022/04/13 10:17:17;;;;;;;6.57;1.93;;;17.00;93.50;;;17.59;62.13;97988.22;4979056;28;20449;-75
2022/04/13 10:19:54;;;;;;;7.40;1.80;;;17.20;93.10;;;17.78;59.63;97977.44;4980388;28;20527;-75
2022/04/13 10:22:25;;;;;;;6.77;1.83;;;17.50;92.20;;;18.03;58.08;97975.31;4979642;28;20456;-75
2022/04/13 10:24:54;;;;;;;10.40;1.67;;;17.80;91.70;;;18.19;58.92;97987.00;4979646;28;20529;-75
2022/04/13 10:27:27;;;;;;;6.80;1.77;;;17.80;92.10;;;18.29;58.88;97980.00;4980406;28;20490;-75
2022/04/13 10:30:09;;;;;;;12.40;2.20;;;17.80;92.20;;;18.36;59.27;97980.66;4979635;28;20452;-75
2022/04/13 10:32:40;;;;;;;10.13;3.10;;;17.90;92.40;;;18.43;57.46;97978.69;4979738;28;20437;-76
2022/04/13 10:35:11;;;;;;;8.73;2.10;;;17.90;91.70;;;18.47;55.39;97981.66;4978813;28;20448;-75
2022/04/13 10:37:43;;;;;;;3.73;1.60;;;17.80;90.90;;;18.50;56.49;97982.00;4978769;28;20947;-75
2022/04/13 10:40:14;;;;;;;4.90;1.70;;;17.90;91.60;;;18.53;57.35;97984.19;4979390;28;20539;-75
2022/04/13 10:42:48;;;;;;;5.90;1.77;;;18.00;91.80;;;18.58;56.37;97984.28;4980019;28;20473;-76
2022/04/13 10:45:18;;;;;;;6.60;2.13;;;18.10;91.00;;;18.70;55.71;97991.34;4979672;28;20468;-76
2022/04/13 10:47:56;;;;;;;12.40;2.10;;;18.30;91.00;;;18.74;55.56;97981.88;4979197;28;20497;-75
2022/04/13 10:50:37;;;;;;;3.60;1.60;;;18.30;91.00;;;18.81;55.81;97990.47;4979773;28;20448;-75
2022/04/13 10:53:21;;;;;;;3.10;1.60;;;18.30;91.10;;;18.84;55.04;97988.16;4979334;28;20987;-76
2022/04/13 10:55:59;;;;;;;6.93;1.77;;;18.30;90.60;;;18.89;54.18;97984.75;4980110;28;20471;-75
2022/04/13 10:59:03;;;;;;;5.20;2.20;;;18.30;90.80;;;18.90;54.99;97979.22;4979474;28;20451;-75